createdAt,value
2022-08-24T00:02:47.116Z,28.67
2022-08-24T00:07:51.360Z,29.83
2022-08-24T00:12:54.877Z,30.85
2022-08-24T00:17:59.876Z,32.37
2022-08-24T00:23:03.358Z,33.03
2022-08-24T00:28:07.443Z,32.47
2022-08-24T00:33:12.260Z,32.85
2022-08-24T00:38:16.985Z,31.83
2022-08-24T00:43:23.522Z,32.70
2022-08-24T00:48:33.184Z,32.15
2022-08-24T00:53:41.480Z,32.58
2022-08-24T00:58:47.796Z,31.15
2022-08-24T01:04:02.616Z,31.65
2022-08-24T01:09:08.050Z,30.88
2022-08-24T01:14:13.896Z,30.52
2022-08-24T01:19:30.717Z,30.63
2022-08-24T01:24:37.596Z,30.38
2022-08-24T01:29:43.283Z,29.15
2022-08-24T01:34:47.550Z,29.75
2022-08-24T01:39:55.487Z,28.90
2022-08-24T01:45:00.033Z,28.75
2022-08-24T01:50:03.917Z,29.45
2022-08-24T01:55:10.429Z,29.55
2022-08-24T02:00:16.531Z,28.58
2022-08-24T02:05:20.582Z,27.95
2022-08-24T02:10:25.960Z,28.80
2022-08-24T02:15:32.485Z,28.80
2022-08-24T02:20:36.663Z,27.58
2022-08-24T02:25:41.576Z,28.50
2022-08-24T02:30:45.224Z,28.42
2022-08-24T02:35:48.722Z,28.02
2022-08-24T02:40:53.713Z,28.87
2022-08-24T02:45:57.196Z,29.42
2022-08-24T02:51:00.755Z,28.20
2022-08-24T02:56:05.888Z,29.97
2022-08-24T03:01:15.920Z,27.98
2022-08-24T03:06:27.516Z,29.10
2022-08-24T03:11:32.576Z,28.17
2022-08-24T03:16:36.656Z,27.38
2022-08-24T03:21:40.147Z,26.58
2022-08-24T03:26:45.302Z,26.53
2022-08-24T03:31:49.508Z,27.45
2022-08-24T03:36:53.053Z,25.90
2022-08-24T03:41:58.196Z,25.63
2022-08-24T03:47:01.955Z,26.02
2022-08-24T03:52:06.273Z,26.00
2022-08-24T03:57:11.242Z,25.35
2022-08-24T04:02:14.932Z,25.05
2022-08-24T04:07:18.680Z,25.67
2022-08-24T04:12:23.864Z,23.98
2022-08-24T04:17:27.275Z,24.52
2022-08-24T04:22:34.313Z,23.60
2022-08-24T04:27:39.787Z,24.17
2022-08-24T04:32:43.659Z,23.75
2022-08-24T04:42:51.976Z,24.33
2022-08-24T04:47:55.408Z,26.25
2022-08-24T04:53:00.703Z,27.77
2022-08-24T04:58:05.628Z,28.92
2022-08-24T05:03:09.129Z,29.38
2022-08-24T05:08:15.505Z,28.58
2022-08-24T05:13:20.311Z,29.30
2022-08-24T05:18:23.742Z,29.67
2022-08-24T05:23:27.531Z,29.75
2022-08-24T05:28:32.388Z,29.67
2022-08-24T05:33:35.991Z,29.38
2022-08-24T05:38:39.410Z,30.05
2022-08-24T05:43:45.259Z,30.27
2022-08-24T05:48:52.573Z,30.20
2022-08-24T05:53:57.389Z,29.77
2022-08-24T05:59:02.310Z,31.25
2022-08-24T06:04:06.654Z,29.60
2022-08-24T06:09:12.827Z,29.13
2022-08-24T06:14:21.802Z,28.27
2022-08-24T06:24:49.294Z,27.85
2022-08-24T06:29:57.311Z,27.30
2022-08-24T06:35:00.867Z,24.98
2022-08-24T06:40:04.995Z,25.75
2022-08-24T06:45:11.677Z,24.73
2022-08-24T06:50:15.146Z,24.00
2022-08-24T06:55:18.789Z,23.60
2022-08-24T07:00:25.174Z,20.92
2022-08-24T07:05:29.021Z,21.67
2022-08-24T07:10:33.460Z,17.88
2022-08-24T07:15:38.362Z,17.42
2022-08-24T07:20:42.693Z,16.00
2022-08-24T07:25:49.580Z,11.07
2022-08-24T07:30:55.432Z,9.00
2022-08-24T07:35:59.194Z,8.80
2022-08-24T07:41:35.449Z,8.10
2022-08-24T07:46:30.945Z,7.28
2022-08-24T07:51:35.288Z,7.00
2022-08-24T07:56:38.814Z,5.20
2022-08-24T08:01:43.988Z,4.45
2022-08-24T08:06:48.434Z,4.43
2022-08-24T08:11:52.074Z,3.22
2022-08-24T08:16:57.372Z,3.60
2022-08-24T08:22:18.081Z,3.72
2022-08-24T08:27:21.985Z,3.80
2022-08-24T08:32:26.784Z,4.70
2022-08-24T08:37:31.323Z,3.80
2022-08-24T08:42:46.432Z,3.50
2022-08-24T08:48:25.178Z,3.45
2022-08-24T08:53:53.236Z,3.40
2022-08-24T08:59:04.488Z,3.10
2022-08-24T09:04:25.274Z,3.03
2022-08-24T09:09:54.538Z,3.45
2022-08-24T09:15:32.121Z,3.58
2022-08-24T09:20:58.995Z,2.85
2022-08-24T09:26:10.725Z,2.95
2022-08-24T09:31:51.163Z,2.83
2022-08-24T09:37:02.743Z,3.47
2022-08-24T09:42:49.424Z,2.50
2022-08-24T09:48:30.996Z,2.50
2022-08-24T09:54:03.642Z,2.70
2022-08-24T09:59:25.886Z,2.30
2022-08-24T10:04:37.919Z,2.90
2022-08-24T10:10:04.975Z,3.00
2022-08-24T10:15:18.054Z,2.63
2022-08-24T10:20:25.333Z,2.83
2022-08-24T10:25:38.115Z,3.03
2022-08-24T10:31:05.660Z,2.50
2022-08-24T10:36:27.459Z,2.60
2022-08-24T10:42:33.324Z,2.53
2022-08-24T10:47:42.249Z,2.70
2022-08-24T10:53:13.365Z,2.25
2022-08-24T10:58:51.966Z,2.70
2022-08-24T11:04:01.622Z,2.72
2022-08-24T11:09:09.847Z,2.80
2022-08-24T11:14:25.724Z,2.53
2022-08-24T11:19:35.358Z,2.63
2022-08-24T11:24:45.144Z,2.53
2022-08-24T11:30:14.531Z,2.90
2022-08-24T11:35:24.834Z,2.47
2022-08-24T11:40:30.641Z,2.13
2022-08-24T11:45:42.734Z,2.53
2022-08-24T11:50:58.642Z,2.60
2022-08-24T11:56:11.490Z,2.20
2022-08-24T12:01:21.835Z,2.17
2022-08-24T12:06:42.844Z,2.80
2022-08-24T12:11:54.728Z,2.17
2022-08-24T12:17:05.907Z,2.20
2022-08-24T12:22:12.939Z,2.28
2022-08-24T12:27:21.583Z,2.20
2022-08-24T12:32:30.027Z,3.13
2022-08-24T12:37:40.774Z,2.70
2022-08-24T12:42:52.209Z,2.47
2022-08-24T12:48:04.848Z,2.60
2022-08-24T12:53:30.304Z,2.67
2022-08-24T12:59:01.996Z,2.40
2022-08-24T13:04:15.689Z,2.63
2022-08-24T13:09:33.423Z,2.38
2022-08-24T13:14:36.948Z,2.33
2022-08-24T13:19:44.574Z,2.42
2022-08-24T13:24:54.802Z,2.10
2022-08-24T13:30:07.840Z,2.30
2022-08-24T13:40:31.941Z,2.70
2022-08-24T13:45:38.189Z,2.30
2022-08-24T13:50:59.398Z,2.58
2022-08-24T13:56:44.564Z,2.53
2022-08-24T14:02:04.886Z,2.83
2022-08-24T14:13:00.762Z,2.40
2022-08-24T14:18:12.342Z,2.40
2022-08-24T14:23:29.260Z,3.05
2022-08-24T14:28:40.954Z,2.35
2022-08-24T14:33:52.343Z,2.60
2022-08-24T14:39:14.645Z,2.50
2022-08-24T14:44:45.055Z,2.33
2022-08-24T14:50:08.039Z,2.80
2022-08-24T14:55:24.512Z,2.60
2022-08-24T15:00:50.764Z,2.80
2022-08-24T15:06:26.406Z,2.33
2022-08-24T15:11:31.864Z,2.53
2022-08-24T15:16:53.386Z,3.17
2022-08-24T15:22:02.932Z,2.40
2022-08-24T15:27:20.209Z,2.80
2022-08-24T15:32:28.237Z,2.72
2022-08-24T15:37:37.726Z,2.97
2022-08-24T15:42:41.460Z,3.10
2022-08-24T15:47:51.896Z,3.22
2022-08-24T15:53:01.198Z,2.88
2022-08-24T15:58:31.126Z,2.83
2022-08-24T16:03:48.805Z,3.53
2022-08-24T16:09:03.829Z,3.40
2022-08-24T16:14:13.167Z,3.00
2022-08-24T16:19:25.352Z,2.92
2022-08-24T16:24:33.944Z,2.95
2022-08-24T16:30:21.146Z,2.75
2022-08-24T16:35:26.755Z,3.35
2022-08-24T16:40:33.194Z,3.20
2022-08-24T16:45:37.244Z,3.58
2022-08-24T16:50:42.776Z,4.53
2022-08-24T16:55:48.902Z,4.45
2022-08-24T17:00:53.474Z,4.63
2022-08-24T17:06:00.344Z,4.75
2022-08-24T17:11:05.101Z,5.30
2022-08-24T17:16:10.455Z,4.55
2022-08-24T17:21:15.378Z,4.93
2022-08-24T17:26:21.824Z,5.13
2022-08-24T17:31:25.999Z,4.70
2022-08-24T17:41:36.243Z,5.22
2022-08-24T17:46:40.908Z,5.18
2022-08-24T17:51:45.917Z,6.57
2022-08-24T17:56:51.081Z,5.75
2022-08-24T18:01:57.565Z,6.18
2022-08-24T18:07:07.396Z,5.90
2022-08-24T18:12:16.973Z,6.05
2022-08-24T18:17:25.109Z,5.78
2022-08-24T18:22:30.745Z,5.88
2022-08-24T18:27:34.670Z,5.55
2022-08-24T18:32:41.371Z,6.28
2022-08-24T18:37:47.261Z,6.15
2022-08-24T18:42:51.918Z,6.97
2022-08-24T18:47:55.675Z,6.43
2022-08-24T18:53:01.121Z,5.90
2022-08-24T18:58:05.600Z,6.13
2022-08-24T19:03:10.522Z,6.50
2022-08-24T19:08:15.522Z,6.00
2022-08-24T19:13:19.568Z,6.20
2022-08-24T19:18:24.154Z,6.32
2022-08-24T19:23:34.096Z,5.82
2022-08-24T19:28:39.029Z,6.60
2022-08-24T19:33:49.841Z,6.00
2022-08-24T19:38:55.284Z,6.88
2022-08-24T19:44:27.234Z,5.97
2022-08-24T19:49:31.228Z,5.82
2022-08-24T19:54:38.964Z,6.82
2022-08-24T19:59:45.151Z,5.90
2022-08-24T20:04:48.587Z,6.18
2022-08-24T20:09:53.993Z,6.40
2022-08-24T20:14:57.561Z,6.20
2022-08-24T20:20:02.399Z,6.60
2022-08-24T20:25:09.276Z,6.53
2022-08-24T20:30:15.406Z,6.72
2022-08-24T20:35:18.847Z,7.30
2022-08-24T20:40:24.771Z,7.40
2022-08-24T20:45:28.887Z,7.00
2022-08-24T20:50:32.511Z,7.53
2022-08-24T20:55:38.814Z,7.88
2022-08-24T21:00:45.205Z,8.18
2022-08-24T21:05:53.101Z,8.35
2022-08-24T21:10:59.329Z,8.18
2022-08-24T21:16:04.752Z,7.70
2022-08-24T21:21:08.838Z,7.35
2022-08-24T21:26:16.634Z,8.23
2022-08-24T21:31:20.933Z,7.40
2022-08-24T21:36:26.701Z,7.93
2022-08-24T21:41:32.408Z,8.20
2022-08-24T21:46:39.041Z,7.32
2022-08-24T21:51:43.587Z,7.45
2022-08-24T22:01:53.407Z,7.68
2022-08-24T22:06:57.557Z,7.20
2022-08-24T22:12:03.091Z,6.78
2022-08-24T22:17:06.586Z,7.05
2022-08-24T22:22:10.358Z,7.07
2022-08-24T22:27:16.061Z,6.88
2022-08-24T22:32:19.832Z,7.10
2022-08-24T22:37:23.315Z,7.10
2022-08-24T22:42:28.201Z,6.87
2022-08-24T22:47:31.917Z,6.50
2022-08-24T22:52:36.575Z,6.65
2022-08-24T22:57:42.480Z,6.50
2022-08-24T23:02:48.046Z,6.45
2022-08-24T23:07:52.289Z,6.07
2022-08-24T23:18:20.794Z,6.90
2022-08-24T23:23:24.667Z,6.72
2022-08-24T23:28:31.558Z,6.15
2022-08-24T23:33:35.544Z,6.65
2022-08-24T23:38:43.761Z,6.00
2022-08-24T23:43:49.155Z,5.93
2022-08-24T23:48:55.878Z,6.10
2022-08-24T23:54:00.354Z,6.47
2022-08-24T23:59:08.943Z,6.60
